createdAt,value
2023-05-11T00:01:29.716Z,35.83
2023-05-11T00:03:56.649Z,30.35
2023-05-11T00:06:23.514Z,28.02
2023-05-11T00:08:50.449Z,25.83
2023-05-11T00:11:18.658Z,26.73
2023-05-11T00:13:45.842Z,25.75
2023-05-11T00:16:12.798Z,23.98
2023-05-11T00:18:39.534Z,23.92
2023-05-11T00:21:06.237Z,21.95
2023-05-11T00:23:33.150Z,21.27
2023-05-11T00:25:59.756Z,23.48
2023-05-11T00:28:26.492Z,21.60
2023-05-11T00:30:57.549Z,22.02
2023-05-11T00:33:24.782Z,21.65
2023-05-11T00:35:51.812Z,22.20
2023-05-11T00:38:18.561Z,22.23
2023-05-11T00:40:45.470Z,20.17
2023-05-11T00:43:12.144Z,21.90
2023-05-11T00:45:39.969Z,25.85
2023-05-11T00:48:07.154Z,23.45
2023-05-11T00:50:35.901Z,25.73
2023-05-11T00:53:03.040Z,23.45
2023-05-11T00:55:30.582Z,23.80
2023-05-11T00:57:57.366Z,23.08
2023-05-11T01:00:23.986Z,24.33
2023-05-11T01:02:50.857Z,22.98
2023-05-11T01:05:17.988Z,20.52
2023-05-11T01:07:50.777Z,19.45
2023-05-11T01:10:33.058Z,21.02
2023-05-11T01:13:05.423Z,23.38
2023-05-11T01:15:48.081Z,20.45
2023-05-11T01:18:25.347Z,22.17
2023-05-11T01:20:59.941Z,23.02
2023-05-11T01:23:48.905Z,25.60
2023-05-11T01:26:37.072Z,24.90
2023-05-11T01:29:22.688Z,25.08
2023-05-11T01:31:53.410Z,23.48
2023-05-11T01:34:24.670Z,24.92
2023-05-11T01:36:56.134Z,23.42
2023-05-11T01:39:33.024Z,20.85
2023-05-11T01:42:10.385Z,21.52
2023-05-11T01:44:44.365Z,27.88
2023-05-11T01:47:13.524Z,23.55
2023-05-11T01:49:44.273Z,21.33
2023-05-11T01:52:11.516Z,21.77
2023-05-11T01:54:40.709Z,21.65
2023-05-11T01:57:09.546Z,21.80
2023-05-11T01:59:39.424Z,24.15
2023-05-11T02:02:08.548Z,26.77
2023-05-11T02:04:38.763Z,24.00
2023-05-11T02:07:08.194Z,23.90
2023-05-11T02:09:36.640Z,21.75
2023-05-11T02:12:05.449Z,24.58
2023-05-11T02:14:34.888Z,25.00
2023-05-11T02:17:03.890Z,28.13
2023-05-11T02:19:33.979Z,27.77
2023-05-11T02:22:02.190Z,30.70
2023-05-11T02:24:31.460Z,29.23
2023-05-11T02:26:59.118Z,26.98
2023-05-11T02:29:26.463Z,28.85
2023-05-11T02:32:03.420Z,28.60
2023-05-11T02:34:37.417Z,32.70
2023-05-11T02:37:09.919Z,29.23
2023-05-11T02:39:36.808Z,30.48
2023-05-11T02:42:22.104Z,28.50
2023-05-11T02:45:09.431Z,28.85
2023-05-11T02:47:56.765Z,33.85
2023-05-11T02:50:25.634Z,35.42
2023-05-11T02:52:56.943Z,33.67
2023-05-11T02:55:24.048Z,30.23
2023-05-11T02:57:50.740Z,31.00
2023-05-11T03:00:18.216Z,36.67
2023-05-11T03:02:45.353Z,34.97
2023-05-11T03:05:12.165Z,34.55
2023-05-11T03:07:38.788Z,34.00
2023-05-11T03:10:06.377Z,37.00
2023-05-11T03:12:34.662Z,39.05
2023-05-11T03:15:04.060Z,44.40
2023-05-11T03:17:31.508Z,38.92
2023-05-11T03:19:59.761Z,37.45
2023-05-11T03:22:27.785Z,32.00
2023-05-11T03:24:54.670Z,25.55
2023-05-11T03:27:22.138Z,31.25
2023-05-11T03:29:50.442Z,29.25
2023-05-11T03:32:17.246Z,29.23
2023-05-11T03:34:44.112Z,30.30
2023-05-11T03:37:13.290Z,29.67
2023-05-11T03:39:43.923Z,26.95
2023-05-11T03:42:13.728Z,32.00
2023-05-11T03:44:42.643Z,31.60
2023-05-11T03:47:10.406Z,33.03
2023-05-11T03:49:38.865Z,36.63
2023-05-11T03:52:07.168Z,38.45
2023-05-11T03:54:34.225Z,35.33
2023-05-11T03:57:01.269Z,33.95
2023-05-11T03:59:27.796Z,38.15
2023-05-11T04:01:55.162Z,38.70
2023-05-11T04:04:29.640Z,41.85
2023-05-11T04:11:50.365Z,40.25
2023-05-11T04:14:17.735Z,41.40
2023-05-11T04:16:45.070Z,33.05
2023-05-11T04:19:11.842Z,32.67
2023-05-11T04:21:39.259Z,33.13
2023-05-11T04:24:06.449Z,29.55
2023-05-11T04:26:33.893Z,25.75
2023-05-11T04:29:02.139Z,26.67
2023-05-11T04:31:30.741Z,25.45
2023-05-11T04:33:57.441Z,20.50
2023-05-11T04:36:24.236Z,20.13
2023-05-11T04:38:50.982Z,23.50
2023-05-11T04:41:17.648Z,24.17
2023-05-11T04:43:44.463Z,22.77
2023-05-11T04:46:12.844Z,24.88
2023-05-11T04:48:39.667Z,22.63
2023-05-11T04:51:06.496Z,24.08
2023-05-11T04:53:33.604Z,23.33
2023-05-11T04:56:00.418Z,25.83
2023-05-11T04:58:27.182Z,26.83
2023-05-11T05:00:54.003Z,27.83
2023-05-11T05:03:20.982Z,26.95
2023-05-11T05:05:48.001Z,25.80
2023-05-11T05:08:14.728Z,23.38
2023-05-11T05:10:41.482Z,26.38
2023-05-11T05:13:08.380Z,27.10
2023-05-11T05:15:35.182Z,23.70
2023-05-11T05:18:01.835Z,26.05
2023-05-11T05:20:28.513Z,24.77
2023-05-11T05:22:58.966Z,23.77
2023-05-11T05:25:25.598Z,26.40
2023-05-11T05:27:52.235Z,23.48
2023-05-11T05:30:19.070Z,25.42
2023-05-11T05:32:45.966Z,26.92
2023-05-11T05:35:13.188Z,27.17
2023-05-11T05:37:40.871Z,25.95
2023-05-11T05:40:09.062Z,29.15
2023-05-11T05:47:29.204Z,28.85
2023-05-11T05:49:55.833Z,29.08
2023-05-11T05:52:22.504Z,23.48
2023-05-11T05:54:49.083Z,27.08
2023-05-11T05:57:16.084Z,23.40
2023-05-11T05:59:42.717Z,26.20
2023-05-11T06:02:09.379Z,23.75
2023-05-11T06:04:36.237Z,26.38
2023-05-11T06:07:03.150Z,24.13
2023-05-11T06:09:29.779Z,22.30
2023-05-11T06:11:57.344Z,23.50
2023-05-11T06:14:25.016Z,21.40
2023-05-11T06:16:51.689Z,22.63
2023-05-11T06:19:18.360Z,23.17
2023-05-11T06:21:46.463Z,22.52
2023-05-11T06:24:13.216Z,21.75
2023-05-11T06:26:41.021Z,19.23
2023-05-11T06:29:08.102Z,21.85
2023-05-11T06:31:37.756Z,21.27
2023-05-11T06:34:04.590Z,21.02
2023-05-11T06:36:32.328Z,21.08
2023-05-11T06:38:59.121Z,20.73
2023-05-11T06:41:26.042Z,21.20
2023-05-11T06:43:52.722Z,18.65
2023-05-11T06:46:19.553Z,20.27
2023-05-11T06:48:46.292Z,19.27
2023-05-11T06:51:13.013Z,18.25
2023-05-11T06:53:39.822Z,14.45
2023-05-11T06:56:07.169Z,15.00
2023-05-11T06:58:34.753Z,15.95
2023-05-11T07:01:02.398Z,13.60
2023-05-11T07:05:55.991Z,17.38
2023-05-11T07:08:22.539Z,16.67
2023-05-11T07:10:49.282Z,16.00
2023-05-11T07:13:15.975Z,15.43
2023-05-11T07:15:42.612Z,14.05
2023-05-11T07:18:09.403Z,14.07
2023-05-11T07:20:38.069Z,16.75
2023-05-11T07:23:04.610Z,15.45
2023-05-11T07:25:31.831Z,15.30
2023-05-11T07:27:58.634Z,14.25
2023-05-11T07:30:26.157Z,17.80
2023-05-11T07:32:53.403Z,11.85
2023-05-11T07:35:22.110Z,12.25
2023-05-11T07:37:50.007Z,13.10
2023-05-11T07:40:16.719Z,12.85
2023-05-11T07:42:43.876Z,12.65
2023-05-11T07:45:10.716Z,12.25
2023-05-11T07:47:37.337Z,10.82
2023-05-11T07:50:04.448Z,12.68
2023-05-11T07:52:31.070Z,10.07
2023-05-11T07:54:57.670Z,10.85
2023-05-11T07:57:25.377Z,11.65
2023-05-11T07:59:53.006Z,12.10
2023-05-11T08:02:19.675Z,11.27
2023-05-11T08:04:46.340Z,10.88
2023-05-11T08:07:13.046Z,10.98
2023-05-11T08:09:39.724Z,11.55
2023-05-11T08:12:06.438Z,11.00
2023-05-11T08:14:33.195Z,11.80
2023-05-11T08:16:59.920Z,12.00
2023-05-11T08:19:26.848Z,9.80
2023-05-11T08:21:53.646Z,8.82
2023-05-11T08:24:20.368Z,9.98
2023-05-11T08:26:47.289Z,7.93
2023-05-11T08:29:14.575Z,8.55
2023-05-11T08:31:41.343Z,8.07
2023-05-11T08:34:18.478Z,7.65
2023-05-11T08:36:46.882Z,7.75
2023-05-11T08:39:13.591Z,7.47
2023-05-11T08:41:40.268Z,7.10
2023-05-11T08:44:07.977Z,8.38
2023-05-11T08:46:40.115Z,8.75
2023-05-11T08:49:10.405Z,8.48
2023-05-11T08:51:37.245Z,7.55
2023-05-11T08:54:04.456Z,6.70
2023-05-11T08:56:32.011Z,8.10
2023-05-11T08:58:58.940Z,7.28
2023-05-11T09:01:30.670Z,8.05
2023-05-11T09:03:58.676Z,7.78
2023-05-11T09:06:27.427Z,9.63
2023-05-11T09:08:54.984Z,8.15
2023-05-11T09:11:23.209Z,8.82
2023-05-11T09:13:50.389Z,10.43
2023-05-11T09:16:32.942Z,8.35
2023-05-11T09:19:03.535Z,8.40
2023-05-11T09:21:31.147Z,8.50
2023-05-11T09:24:01.420Z,7.70
2023-05-11T09:26:29.858Z,8.43
2023-05-11T09:29:02.881Z,9.75
2023-05-11T09:34:17.694Z,9.90
2023-05-11T09:36:47.652Z,11.07
2023-05-11T09:39:16.704Z,11.43
2023-05-11T09:41:43.688Z,7.15
2023-05-11T09:44:12.899Z,6.95
2023-05-11T09:46:41.460Z,7.97
2023-05-11T09:49:08.816Z,11.85
2023-05-11T09:51:38.260Z,12.48
2023-05-11T09:54:19.696Z,14.90
2023-05-11T09:56:52.568Z,14.27
2023-05-11T09:59:37.866Z,12.30
2023-05-11T10:02:21.527Z,11.90
2023-05-11T10:04:51.102Z,13.35
2023-05-11T10:07:28.380Z,12.32
2023-05-11T10:09:58.224Z,12.10
2023-05-11T10:12:26.558Z,13.18
2023-05-11T10:14:58.822Z,12.98
2023-05-11T10:17:25.879Z,12.70
2023-05-11T10:19:56.105Z,14.85
2023-05-11T10:22:26.198Z,17.40
2023-05-11T10:24:56.759Z,15.57
2023-05-11T10:27:25.019Z,16.33
2023-05-11T10:29:51.959Z,16.00
2023-05-11T10:32:19.777Z,17.10
2023-05-11T10:34:48.798Z,17.13
2023-05-11T10:37:16.496Z,16.75
2023-05-11T10:39:46.121Z,16.50
2023-05-11T10:42:39.830Z,18.45
2023-05-11T10:45:43.597Z,15.50
2023-05-11T10:48:50.934Z,15.32
2023-05-11T10:51:51.808Z,17.65
2023-05-11T10:54:40.955Z,15.82
2023-05-11T10:57:36.290Z,18.20
2023-05-11T11:00:47.899Z,11.82
2023-05-11T11:03:16.399Z,13.95
2023-05-11T11:05:44.093Z,16.83
2023-05-11T11:08:11.731Z,14.90
2023-05-11T11:10:49.403Z,18.77
2023-05-11T11:13:18.548Z,13.50
2023-05-11T11:15:55.500Z,11.63
2023-05-11T11:18:24.446Z,11.18
2023-05-11T11:20:53.504Z,10.63
2023-05-11T11:23:55.574Z,10.75
2023-05-11T11:26:47.407Z,9.75
2023-05-11T11:29:14.147Z,10.07
2023-05-11T11:31:41.899Z,8.57
2023-05-11T11:37:03.908Z,9.15
2023-05-11T11:40:09.534Z,11.30
2023-05-11T11:45:33.315Z,8.98
2023-05-11T11:48:24.027Z,8.95
2023-05-11T11:51:02.980Z,8.75
2023-05-11T11:53:40.840Z,7.60
2023-05-11T11:56:28.530Z,6.40
2023-05-11T11:59:05.073Z,4.95
2023-05-11T12:01:42.811Z,5.60
2023-05-11T12:04:39.354Z,4.55
2023-05-11T12:07:09.215Z,8.40
2023-05-11T12:09:37.336Z,8.90
2023-05-11T12:12:06.290Z,8.70
2023-05-11T12:14:34.114Z,8.25
2023-05-11T12:17:05.936Z,9.07
2023-05-11T12:19:32.842Z,7.93
2023-05-11T12:21:59.605Z,8.02
2023-05-11T12:24:26.772Z,4.15
2023-05-11T12:26:56.766Z,5.85
2023-05-11T12:29:23.701Z,5.20
2023-05-11T12:31:50.316Z,6.07
2023-05-11T12:34:18.807Z,4.97
2023-05-11T12:36:46.981Z,5.15
2023-05-11T12:39:21.683Z,3.58
2023-05-11T12:41:50.081Z,5.63
2023-05-11T12:44:18.191Z,3.92
2023-05-11T12:46:48.713Z,3.83
2023-05-11T12:49:34.232Z,3.97
2023-05-11T12:52:03.233Z,4.22
2023-05-11T12:54:32.805Z,4.25
2023-05-11T12:57:01.122Z,5.10
2023-05-11T12:59:34.511Z,3.92
2023-05-11T13:02:18.076Z,4.00
2023-05-11T13:04:45.954Z,3.05
2023-05-11T13:07:14.299Z,3.45
2023-05-11T13:09:41.761Z,3.72
2023-05-11T13:12:18.473Z,4.47
2023-05-11T13:14:48.910Z,4.82
2023-05-11T13:17:35.210Z,3.67
2023-05-11T13:20:27.038Z,3.47
2023-05-11T13:23:11.589Z,3.80
2023-05-11T13:25:48.861Z,3.13
2023-05-11T13:28:17.057Z,3.17
2023-05-11T13:30:44.920Z,3.60
2023-05-11T13:33:15.270Z,3.28
2023-05-11T13:35:42.740Z,3.20
2023-05-11T13:38:10.807Z,3.78
2023-05-11T13:40:38.324Z,4.88
2023-05-11T13:43:05.091Z,3.08
2023-05-11T13:45:33.238Z,3.97
2023-05-11T13:48:00.415Z,5.10
2023-05-11T13:50:27.080Z,4.10
2023-05-11T13:52:54.314Z,4.47
2023-05-11T13:55:21.674Z,4.25
2023-05-11T13:57:50.047Z,8.85
2023-05-11T14:00:17.395Z,4.45
2023-05-11T14:02:45.251Z,6.53
2023-05-11T14:05:12.034Z,4.15
2023-05-11T14:07:46.394Z,4.55
2023-05-11T14:10:14.482Z,4.25
2023-05-11T14:12:41.775Z,4.05
2023-05-11T14:15:10.044Z,4.18
2023-05-11T14:17:37.233Z,3.95
2023-05-11T14:20:05.221Z,4.68
2023-05-11T14:22:33.210Z,4.20
2023-05-11T14:25:00.058Z,4.55
2023-05-11T14:27:26.898Z,3.10
2023-05-11T14:29:54.294Z,3.60
2023-05-11T14:32:21.902Z,3.78
2023-05-11T14:34:50.988Z,3.92
2023-05-11T14:37:18.688Z,4.35
2023-05-11T14:39:45.552Z,3.15
2023-05-11T14:42:12.361Z,4.00
2023-05-11T14:44:39.260Z,5.30
2023-05-11T14:47:06.399Z,4.07
2023-05-11T14:49:33.057Z,5.75
2023-05-11T14:51:59.858Z,4.45
2023-05-11T14:54:26.654Z,5.40
2023-05-11T14:56:55.455Z,4.30
2023-05-11T14:59:26.139Z,4.78
2023-05-11T15:01:55.158Z,3.97
2023-05-11T15:04:22.585Z,4.07
2023-05-11T15:06:49.315Z,5.50
2023-05-11T15:09:17.566Z,3.75
2023-05-11T15:11:44.235Z,9.52
2023-05-11T15:14:11.544Z,4.40
2023-05-11T15:16:38.543Z,3.03
2023-05-11T15:19:07.121Z,3.30
2023-05-11T15:21:37.297Z,3.00
2023-05-11T15:24:04.591Z,4.35
2023-05-11T15:26:31.327Z,3.78
2023-05-11T15:29:00.490Z,3.65
2023-05-11T15:31:30.270Z,3.67
2023-05-11T15:33:57.736Z,5.07
2023-05-11T15:36:24.541Z,5.15
2023-05-11T15:38:51.439Z,3.83
2023-05-11T15:41:20.508Z,4.28
2023-05-11T15:43:49.753Z,4.70
2023-05-11T15:46:16.675Z,7.72
2023-05-11T15:48:43.613Z,5.75
2023-05-11T15:51:15.087Z,4.00
2023-05-11T15:53:41.954Z,5.90
2023-05-11T15:56:10.979Z,4.90
2023-05-11T15:58:38.663Z,6.30
2023-05-11T16:01:06.366Z,7.70
2023-05-11T16:03:33.515Z,8.35
2023-05-11T16:06:00.387Z,5.10
2023-05-11T16:08:29.311Z,8.45
2023-05-11T16:10:56.736Z,5.43
2023-05-11T16:13:24.559Z,4.28
2023-05-11T16:15:52.291Z,6.03
2023-05-11T16:18:19.968Z,6.95
2023-05-11T16:23:14.466Z,4.35
2023-05-11T16:25:42.637Z,6.10
2023-05-11T16:28:09.444Z,7.40
2023-05-11T16:30:37.459Z,7.45
2023-05-11T16:33:05.641Z,6.15
2023-05-11T16:35:36.426Z,4.05
2023-05-11T16:38:05.382Z,5.82
2023-05-11T16:40:32.337Z,5.03
2023-05-11T16:43:02.381Z,5.13
2023-05-11T16:45:35.185Z,4.82
2023-05-11T16:48:02.045Z,4.35
2023-05-11T16:50:28.723Z,6.20
2023-05-11T16:52:59.797Z,5.38
2023-05-11T16:55:28.169Z,4.45
2023-05-11T16:57:55.163Z,5.32
2023-05-11T17:00:23.201Z,4.55
2023-05-11T17:02:50.691Z,7.13
2023-05-11T17:05:20.605Z,4.22
2023-05-11T17:07:49.137Z,4.90
2023-05-11T17:10:16.443Z,4.25
2023-05-11T17:12:44.720Z,4.28
2023-05-11T17:15:12.037Z,4.35
2023-05-11T17:17:39.284Z,5.15
2023-05-11T17:20:10.270Z,7.78
2023-05-11T17:22:37.905Z,4.20
2023-05-11T17:25:07.397Z,4.80
2023-05-11T17:27:37.558Z,4.43
2023-05-11T17:30:05.937Z,4.50
2023-05-11T17:32:33.414Z,5.18
2023-05-11T17:35:04.104Z,3.78
2023-05-11T17:37:32.430Z,5.35
2023-05-11T17:40:01.656Z,5.13
2023-05-11T17:42:28.546Z,6.40
2023-05-11T17:44:56.100Z,4.85
2023-05-11T17:47:22.805Z,6.53
2023-05-11T17:49:49.649Z,4.47
2023-05-11T17:52:17.130Z,6.07
2023-05-11T17:54:44.015Z,5.13
2023-05-11T17:57:13.242Z,3.88
2023-05-11T17:59:41.497Z,4.90
2023-05-11T18:02:09.476Z,4.88
2023-05-11T18:04:36.206Z,6.07
2023-05-11T18:07:04.603Z,5.18
2023-05-11T18:09:31.282Z,3.95
2023-05-11T18:11:57.895Z,5.18
2023-05-11T18:14:25.080Z,5.55
2023-05-11T18:16:53.079Z,4.18
2023-05-11T18:21:46.712Z,5.32
2023-05-11T18:24:15.232Z,5.55
2023-05-11T18:26:42.324Z,5.25
2023-05-11T18:29:10.114Z,5.72
2023-05-11T18:31:38.666Z,4.68
2023-05-11T18:34:06.529Z,5.72
2023-05-11T18:36:35.216Z,4.22
2023-05-11T18:39:04.076Z,4.63
2023-05-11T18:41:30.791Z,4.72
2023-05-11T18:43:59.056Z,7.53
2023-05-11T18:46:27.502Z,4.50
2023-05-11T18:48:54.571Z,5.32
2023-05-11T18:51:25.685Z,4.53
2023-05-11T18:53:55.307Z,4.70
2023-05-11T18:56:22.535Z,4.57
2023-05-11T18:58:50.478Z,5.47
2023-05-11T19:01:18.782Z,5.30
2023-05-11T19:03:46.363Z,5.13
2023-05-11T19:06:14.704Z,6.30
2023-05-11T19:08:42.344Z,3.95
2023-05-11T19:11:10.579Z,4.88
2023-05-11T19:16:04.969Z,6.55
2023-05-11T19:18:35.710Z,8.68
2023-05-11T19:21:04.847Z,4.60
2023-05-11T19:23:35.580Z,4.63
2023-05-11T19:26:06.497Z,5.55
2023-05-11T19:28:35.575Z,6.30
2023-05-11T19:31:04.911Z,5.50
2023-05-11T19:33:32.149Z,5.30
2023-05-11T19:35:59.734Z,5.15
2023-05-11T19:38:26.773Z,5.80
2023-05-11T19:40:53.801Z,5.60
2023-05-11T19:43:21.760Z,5.78
2023-05-11T19:45:49.886Z,5.50
2023-05-11T19:48:19.450Z,4.68
2023-05-11T19:50:47.702Z,5.22
2023-05-11T19:55:44.084Z,6.43
2023-05-11T19:58:12.147Z,4.78
2023-05-11T20:00:41.381Z,5.00
2023-05-11T20:03:09.441Z,5.00
2023-05-11T20:05:36.760Z,4.85
2023-05-11T20:08:05.866Z,4.30
2023-05-11T20:10:34.846Z,5.30
2023-05-11T20:13:07.094Z,6.10
2023-05-11T20:15:36.899Z,6.55
2023-05-11T20:18:07.927Z,4.80
2023-05-11T20:20:34.689Z,4.60
2023-05-11T20:23:02.418Z,5.75
2023-05-11T20:25:30.162Z,4.95
2023-05-11T20:27:56.901Z,5.00
2023-05-11T20:30:23.851Z,5.68
2023-05-11T20:35:20.250Z,7.10
2023-05-11T20:37:48.584Z,5.03
2023-05-11T20:42:42.153Z,7.75
2023-05-11T20:45:11.329Z,5.82
2023-05-11T20:47:38.097Z,5.32
2023-05-11T20:50:09.554Z,4.50
2023-05-11T20:52:39.446Z,6.13
2023-05-11T20:55:11.621Z,5.78
2023-05-11T20:57:38.866Z,5.63
2023-05-11T21:00:08.585Z,5.70
2023-05-11T21:02:35.416Z,5.13
2023-05-11T21:05:02.529Z,7.22
2023-05-11T21:07:29.998Z,7.07
2023-05-11T21:09:56.732Z,7.60
2023-05-11T21:12:23.458Z,6.18
2023-05-11T21:14:50.008Z,7.45
2023-05-11T21:17:16.749Z,6.07
2023-05-11T21:19:43.492Z,5.35
2023-05-11T21:22:10.093Z,6.28
2023-05-11T21:24:37.769Z,6.25
2023-05-11T21:27:04.898Z,6.10
2023-05-11T21:29:31.602Z,6.35
2023-05-11T21:31:58.255Z,5.90
2023-05-11T21:34:25.899Z,6.97
2023-05-11T21:36:52.627Z,6.18
2023-05-11T21:39:19.202Z,8.35
2023-05-11T21:41:45.946Z,6.45
2023-05-11T21:44:12.555Z,7.40
2023-05-11T21:46:39.231Z,4.97
2023-05-11T21:49:06.172Z,5.88
2023-05-11T21:51:33.549Z,6.80
2023-05-11T21:54:00.238Z,6.70
2023-05-11T21:56:26.948Z,7.03
2023-05-11T21:58:53.478Z,7.82
2023-05-11T22:01:21.113Z,6.30
2023-05-11T22:03:47.824Z,8.77
2023-05-11T22:06:14.517Z,5.93
2023-05-11T22:08:41.095Z,5.57
2023-05-11T22:11:07.919Z,6.70
2023-05-11T22:13:34.604Z,7.57
2023-05-11T22:16:01.406Z,6.15
2023-05-11T22:18:28.026Z,5.60
2023-05-11T22:20:54.910Z,8.77
2023-05-11T22:23:21.676Z,5.82
2023-05-11T22:25:48.260Z,5.25
2023-05-11T22:28:14.900Z,5.38
2023-05-11T22:30:41.605Z,7.22
2023-05-11T22:33:08.169Z,8.18
2023-05-11T22:35:34.892Z,6.68
2023-05-11T22:38:01.993Z,6.47
2023-05-11T22:40:28.638Z,6.70
2023-05-11T22:42:55.326Z,6.13
2023-05-11T22:45:22.033Z,6.95
2023-05-11T22:47:48.855Z,5.93
2023-05-11T22:50:15.721Z,6.53
2023-05-11T22:52:42.366Z,6.32
2023-05-11T22:55:09.643Z,6.10
2023-05-11T22:57:36.190Z,6.40
2023-05-11T23:00:04.005Z,7.22
2023-05-11T23:02:30.806Z,5.72
2023-05-11T23:04:57.589Z,5.68
2023-05-11T23:07:24.227Z,6.25
2023-05-11T23:09:52.882Z,5.93
2023-05-11T23:12:19.758Z,6.10
2023-05-11T23:14:47.437Z,7.72
2023-05-11T23:17:14.062Z,6.65
2023-05-11T23:19:40.816Z,5.32
2023-05-11T23:22:07.620Z,6.93
2023-05-11T23:24:34.711Z,7.60
2023-05-11T23:27:01.505Z,5.10
2023-05-11T23:29:28.176Z,5.30
2023-05-11T23:31:55.968Z,7.13
2023-05-11T23:34:22.595Z,6.18
2023-05-11T23:36:49.320Z,5.88
2023-05-11T23:39:15.955Z,7.80
2023-05-11T23:41:42.674Z,7.13
2023-05-11T23:44:09.373Z,7.68
2023-05-11T23:46:36.306Z,5.65
2023-05-11T23:49:03.573Z,6.20
2023-05-11T23:51:30.569Z,6.45
2023-05-11T23:53:57.238Z,5.93
2023-05-11T23:56:23.981Z,6.40
2023-05-11T23:58:50.708Z,6.88
